Terminal Aerodrome Forecast
Issued by NWS Portland, OR

Home | Current Version | Previous Version | Text Only | Print | Product List | Glossary On
Versions: 1 2 3 4 5 6 7 8 9 10 11 12 13 14 15 16 17
000
FTUS46 KPQR 242341
TAFTTD
TAF
KTTD 242341Z 2500/2524 26004KT P6SM SKC
     FM251300 00000KT P6SM OVC015
     FM251800 00000KT P6SM FEW020=

USA.gov is the U.S. government's official web portal to all federal, state and local government web resources and services.